sensor_id;sensor_type;location;lat;lon;timestamp;P1;durP1;ratioP1;P2;durP2;ratioP2
48703;SDS011;34502;51.296;16.918;2024-02-21T00:01:21;23.33;;;7.50;;
48703;SDS011;34502;51.296;16.918;2024-02-21T00:03:47;20.08;;;7.20;;
48703;SDS011;34502;51.296;16.918;2024-02-21T00:06:14;25.92;;;6.45;;
48703;SDS011;34502;51.296;16.918;2024-02-21T00:08:40;26.70;;;7.75;;
48703;SDS011;34502;51.296;16.918;2024-02-21T00:11:06;28.45;;;7.53;;
48703;SDS011;34502;51.296;16.918;2024-02-21T00:13:32;21.40;;;6.22;;
48703;SDS011;34502;51.296;16.918;2024-02-21T00:15:59;28.13;;;9.02;;
48703;SDS011;34502;51.296;16.918;2024-02-21T00:18:26;27.13;;;6.35;;
48703;SDS011;34502;51.296;16.918;2024-02-21T00:20:52;22.40;;;5.97;;
48703;SDS011;34502;51.296;16.918;2024-02-21T00:23:18;23.00;;;7.40;;
48703;SDS011;34502;51.296;16.918;2024-02-21T00:25:45;17.40;;;5.75;;
48703;SDS011;34502;51.296;16.918;2024-02-21T00:28:11;24.70;;;5.82;;
48703;SDS011;34502;51.296;16.918;2024-02-21T00:30:37;21.08;;;6.07;;
48703;SDS011;34502;51.296;16.918;2024-02-21T00:33:03;21.83;;;6.28;;
48703;SDS011;34502;51.296;16.918;2024-02-21T00:35:30;22.13;;;6.20;;
48703;SDS011;34502;51.296;16.918;2024-02-21T00:37:56;24.48;;;6.65;;
48703;SDS011;34502;51.296;16.918;2024-02-21T00:40:24;22.95;;;7.05;;
48703;SDS011;34502;51.296;16.918;2024-02-21T00:42:50;26.52;;;7.03;;
48703;SDS011;34502;51.296;16.918;2024-02-21T00:45:16;25.77;;;6.32;;
48703;SDS011;34502;51.296;16.918;2024-02-21T00:47:42;24.13;;;6.45;;
48703;SDS011;34502;51.296;16.918;2024-02-21T00:50:09;26.17;;;5.47;;
48703;SDS011;34502;51.296;16.918;2024-02-21T00:52:35;21.88;;;6.88;;
48703;SDS011;34502;51.296;16.918;2024-02-21T00:55:01;25.90;;;5.88;;
48703;SDS011;34502;51.296;16.918;2024-02-21T00:57:28;23.23;;;5.47;;
48703;SDS011;34502;51.296;16.918;2024-02-21T00:59:54;21.65;;;5.38;;
48703;SDS011;34502;51.296;16.918;2024-02-21T01:02:22;27.48;;;6.63;;
48703;SDS011;34502;51.296;16.918;2024-02-21T01:04:48;18.80;;;6.35;;
48703;SDS011;34502;51.296;16.918;2024-02-21T01:07:14;22.45;;;5.63;;
48703;SDS011;34502;51.296;16.918;2024-02-21T01:09:40;29.85;;;8.00;;
48703;SDS011;34502;51.296;16.918;2024-02-21T01:12:06;22.85;;;5.97;;
48703;SDS011;34502;51.296;16.918;2024-02-21T01:14:32;19.73;;;6.63;;
48703;SDS011;34502;51.296;16.918;2024-02-21T01:16:58;24.98;;;6.30;;
48703;SDS011;34502;51.296;16.918;2024-02-21T01:19:24;24.27;;;5.72;;
48703;SDS011;34502;51.296;16.918;2024-02-21T01:21:51;22.13;;;5.88;;
48703;SDS011;34502;51.296;16.918;2024-02-21T01:24:17;20.63;;;5.90;;
48703;SDS011;34502;51.296;16.918;2024-02-21T01:26:43;23.80;;;6.80;;
48703;SDS011;34502;51.296;16.918;2024-02-21T01:29:09;30.35;;;6.15;;
48703;SDS011;34502;51.296;16.918;2024-02-21T01:31:35;28.40;;;7.40;;
48703;SDS011;34502;51.296;16.918;2024-02-21T01:34:01;24.10;;;6.75;;
48703;SDS011;34502;51.296;16.918;2024-02-21T01:36:27;27.58;;;7.00;;
48703;SDS011;34502;51.296;16.918;2024-02-21T01:38:53;25.20;;;7.25;;
48703;SDS011;34502;51.296;16.918;2024-02-21T01:41:20;20.75;;;5.90;;
48703;SDS011;34502;51.296;16.918;2024-02-21T01:43:46;22.20;;;6.65;;
48703;SDS011;34502;51.296;16.918;2024-02-21T01:46:12;28.20;;;7.30;;
48703;SDS011;34502;51.296;16.918;2024-02-21T01:48:38;17.27;;;6.22;;
48703;SDS011;34502;51.296;16.918;2024-02-21T01:51:04;26.33;;;6.22;;
48703;SDS011;34502;51.296;16.918;2024-02-21T01:53:32;28.13;;;7.15;;
48703;SDS011;34502;51.296;16.918;2024-02-21T01:56:04;24.13;;;6.93;;
48703;SDS011;34502;51.296;16.918;2024-02-21T01:58:31;20.25;;;6.40;;
48703;SDS011;34502;51.296;16.918;2024-02-21T02:00:58;19.70;;;6.60;;
48703;SDS011;34502;51.296;16.918;2024-02-21T02:03:25;24.40;;;6.43;;
48703;SDS011;34502;51.296;16.918;2024-02-21T02:05:51;25.83;;;7.30;;
48703;SDS011;34502;51.296;16.918;2024-02-21T02:08:21;21.60;;;6.32;;
48703;SDS011;34502;51.296;16.918;2024-02-21T02:10:47;19.10;;;6.45;;
48703;SDS011;34502;51.296;16.918;2024-02-21T02:13:14;17.08;;;5.65;;
48703;SDS011;34502;51.296;16.918;2024-02-21T02:15:44;20.50;;;5.55;;
48703;SDS011;34502;51.296;16.918;2024-02-21T02:18:11;19.23;;;5.68;;
48703;SDS011;34502;51.296;16.918;2024-02-21T02:20:38;16.55;;;5.85;;
48703;SDS011;34502;51.296;16.918;2024-02-21T02:23:12;18.10;;;6.00;;
48703;SDS011;34502;51.296;16.918;2024-02-21T02:25:48;19.73;;;5.68;;
48703;SDS011;34502;51.296;16.918;2024-02-21T02:28:19;20.65;;;5.93;;
48703;SDS011;34502;51.296;16.918;2024-02-21T02:30:45;26.58;;;7.15;;
48703;SDS011;34502;51.296;16.918;2024-02-21T02:33:12;25.40;;;6.18;;
48703;SDS011;34502;51.296;16.918;2024-02-21T02:35:38;19.65;;;5.95;;
48703;SDS011;34502;51.296;16.918;2024-02-21T02:38:05;25.10;;;7.10;;
48703;SDS011;34502;51.296;16.918;2024-02-21T02:40:33;21.88;;;6.45;;
48703;SDS011;34502;51.296;16.918;2024-02-21T02:42:59;21.52;;;6.18;;
48703;SDS011;34502;51.296;16.918;2024-02-21T02:45:25;26.33;;;6.63;;
48703;SDS011;34502;51.296;16.918;2024-02-21T02:47:52;27.52;;;6.55;;
48703;SDS011;34502;51.296;16.918;2024-02-21T02:50:22;20.00;;;6.07;;
48703;SDS011;34502;51.296;16.918;2024-02-21T02:52:48;22.77;;;6.15;;
48703;SDS011;34502;51.296;16.918;2024-02-21T02:55:15;21.40;;;5.78;;
48703;SDS011;34502;51.296;16.918;2024-02-21T02:57:41;19.15;;;5.97;;
48703;SDS011;34502;51.296;16.918;2024-02-21T03:00:08;18.15;;;5.32;;
48703;SDS011;34502;51.296;16.918;2024-02-21T03:02:38;22.02;;;6.35;;
48703;SDS011;34502;51.296;16.918;2024-02-21T03:05:15;20.73;;;5.90;;
48703;SDS011;34502;51.296;16.918;2024-02-21T03:07:43;23.63;;;5.95;;
48703;SDS011;34502;51.296;16.918;2024-02-21T03:10:09;26.80;;;6.97;;
48703;SDS011;34502;51.296;16.918;2024-02-21T03:12:36;15.88;;;5.47;;
48703;SDS011;34502;51.296;16.918;2024-02-21T03:15:03;20.50;;;5.68;;
48703;SDS011;34502;51.296;16.918;2024-02-21T03:17:30;17.73;;;5.30;;
48703;SDS011;34502;51.296;16.918;2024-02-21T03:19:57;19.30;;;5.53;;
48703;SDS011;34502;51.296;16.918;2024-02-21T03:22:25;23.48;;;6.30;;
48703;SDS011;34502;51.296;16.918;2024-02-21T03:24:51;24.65;;;6.40;;
48703;SDS011;34502;51.296;16.918;2024-02-21T03:27:17;21.70;;;6.28;;
48703;SDS011;34502;51.296;16.918;2024-02-21T03:29:43;22.27;;;7.00;;
48703;SDS011;34502;51.296;16.918;2024-02-21T03:32:09;20.42;;;6.38;;
48703;SDS011;34502;51.296;16.918;2024-02-21T03:34:35;20.40;;;6.05;;
48703;SDS011;34502;51.296;16.918;2024-02-21T03:37:01;20.17;;;6.60;;
48703;SDS011;34502;51.296;16.918;2024-02-21T03:39:30;23.45;;;6.50;;
48703;SDS011;34502;51.296;16.918;2024-02-21T03:41:59;23.23;;;6.32;;
48703;SDS011;34502;51.296;16.918;2024-02-21T03:44:29;24.30;;;6.60;;
48703;SDS011;34502;51.296;16.918;2024-02-21T03:46:56;25.95;;;7.05;;
48703;SDS011;34502;51.296;16.918;2024-02-21T03:49:22;16.23;;;5.72;;
48703;SDS011;34502;51.296;16.918;2024-02-21T03:51:48;18.88;;;6.03;;
48703;SDS011;34502;51.296;16.918;2024-02-21T03:54:14;23.98;;;6.10;;
48703;SDS011;34502;51.296;16.918;2024-02-21T03:56:40;19.02;;;6.25;;
48703;SDS011;34502;51.296;16.918;2024-02-21T03:59:07;20.85;;;6.10;;
48703;SDS011;34502;51.296;16.918;2024-02-21T04:01:34;18.70;;;7.05;;
48703;SDS011;34502;51.296;16.918;2024-02-21T04:04:00;17.48;;;6.28;;
48703;SDS011;34502;51.296;16.918;2024-02-21T04:06:26;15.55;;;5.75;;
48703;SDS011;34502;51.296;16.918;2024-02-21T04:08:53;19.35;;;5.97;;
48703;SDS011;34502;51.296;16.918;2024-02-21T04:11:19;15.32;;;5.88;;
48703;SDS011;34502;51.296;16.918;2024-02-21T04:13:45;22.73;;;6.97;;
48703;SDS011;34502;51.296;16.918;2024-02-21T04:16:13;18.10;;;6.25;;
48703;SDS011;34502;51.296;16.918;2024-02-21T04:18:40;23.50;;;7.85;;
48703;SDS011;34502;51.296;16.918;2024-02-21T04:21:07;28.35;;;7.38;;
48703;SDS011;34502;51.296;16.918;2024-02-21T04:23:33;18.98;;;6.90;;
48703;SDS011;34502;51.296;16.918;2024-02-21T04:25:59;19.30;;;7.15;;
48703;SDS011;34502;51.296;16.918;2024-02-21T04:28:25;26.05;;;7.53;;
48703;SDS011;34502;51.296;16.918;2024-02-21T04:30:51;23.35;;;7.13;;
48703;SDS011;34502;51.296;16.918;2024-02-21T04:33:18;23.40;;;8.02;;
48703;SDS011;34502;51.296;16.918;2024-02-21T04:35:44;23.00;;;7.45;;
48703;SDS011;34502;51.296;16.918;2024-02-21T04:38:10;20.48;;;7.05;;
48703;SDS011;34502;51.296;16.918;2024-02-21T04:40:36;16.50;;;7.80;;
48703;SDS011;34502;51.296;16.918;2024-02-21T04:43:02;19.73;;;7.75;;
48703;SDS011;34502;51.296;16.918;2024-02-21T04:45:28;26.02;;;7.93;;
48703;SDS011;34502;51.296;16.918;2024-02-21T04:47:55;24.38;;;7.70;;
48703;SDS011;34502;51.296;16.918;2024-02-21T04:50:21;24.23;;;8.38;;
48703;SDS011;34502;51.296;16.918;2024-02-21T04:52:47;26.73;;;9.43;;
48703;SDS011;34502;51.296;16.918;2024-02-21T04:55:13;28.38;;;8.27;;
48703;SDS011;34502;51.296;16.918;2024-02-21T04:57:40;22.70;;;8.70;;
48703;SDS011;34502;51.296;16.918;2024-02-21T05:00:06;21.60;;;7.60;;
48703;SDS011;34502;51.296;16.918;2024-02-21T05:02:33;25.75;;;9.18;;
48703;SDS011;34502;51.296;16.918;2024-02-21T05:04:59;22.02;;;7.28;;
48703;SDS011;34502;51.296;16.918;2024-02-21T05:07:25;22.52;;;8.25;;
48703;SDS011;34502;51.296;16.918;2024-02-21T05:09:51;19.33;;;7.00;;
48703;SDS011;34502;51.296;16.918;2024-02-21T05:12:18;21.17;;;8.15;;
48703;SDS011;34502;51.296;16.918;2024-02-21T05:14:44;25.90;;;8.20;;
48703;SDS011;34502;51.296;16.918;2024-02-21T05:17:10;16.60;;;6.80;;
48703;SDS011;34502;51.296;16.918;2024-02-21T05:19:36;25.02;;;7.70;;
48703;SDS011;34502;51.296;16.918;2024-02-21T05:22:02;25.23;;;8.43;;
48703;SDS011;34502;51.296;16.918;2024-02-21T05:24:28;28.25;;;8.00;;
48703;SDS011;34502;51.296;16.918;2024-02-21T05:26:54;19.60;;;7.80;;
48703;SDS011;34502;51.296;16.918;2024-02-21T05:29:20;21.02;;;7.75;;
48703;SDS011;34502;51.296;16.918;2024-02-21T05:34:19;21.92;;;7.38;;
48703;SDS011;34502;51.296;16.918;2024-02-21T05:36:45;22.33;;;7.28;;
48703;SDS011;34502;51.296;16.918;2024-02-21T05:39:14;29.08;;;8.65;;
48703;SDS011;34502;51.296;16.918;2024-02-21T05:41:42;23.90;;;9.23;;
48703;SDS011;34502;51.296;16.918;2024-02-21T05:44:08;17.67;;;7.03;;
48703;SDS011;34502;51.296;16.918;2024-02-21T05:46:34;18.45;;;6.93;;
48703;SDS011;34502;51.296;16.918;2024-02-21T05:49:00;26.20;;;8.25;;
48703;SDS011;34502;51.296;16.918;2024-02-21T05:51:26;19.88;;;7.88;;
48703;SDS011;34502;51.296;16.918;2024-02-21T05:53:52;16.50;;;7.07;;
48703;SDS011;34502;51.296;16.918;2024-02-21T05:56:18;17.38;;;7.05;;
48703;SDS011;34502;51.296;16.918;2024-02-21T05:58:45;19.75;;;8.75;;
48703;SDS011;34502;51.296;16.918;2024-02-21T06:01:11;16.85;;;7.38;;
48703;SDS011;34502;51.296;16.918;2024-02-21T06:03:37;22.00;;;9.27;;
48703;SDS011;34502;51.296;16.918;2024-02-21T06:06:03;21.92;;;8.27;;
48703;SDS011;34502;51.296;16.918;2024-02-21T06:08:30;22.15;;;8.13;;
48703;SDS011;34502;51.296;16.918;2024-02-21T06:10:56;16.92;;;7.38;;
48703;SDS011;34502;51.296;16.918;2024-02-21T06:13:25;17.60;;;7.75;;
48703;SDS011;34502;51.296;16.918;2024-02-21T06:15:52;19.55;;;7.95;;
48703;SDS011;34502;51.296;16.918;2024-02-21T06:18:18;16.33;;;6.90;;
48703;SDS011;34502;51.296;16.918;2024-02-21T06:20:45;20.38;;;7.68;;
48703;SDS011;34502;51.296;16.918;2024-02-21T06:23:15;23.55;;;8.40;;
48703;SDS011;34502;51.296;16.918;2024-02-21T06:25:42;18.17;;;8.00;;
48703;SDS011;34502;51.296;16.918;2024-02-21T06:28:09;22.25;;;8.13;;
48703;SDS011;34502;51.296;16.918;2024-02-21T06:30:35;24.20;;;9.20;;
48703;SDS011;34502;51.296;16.918;2024-02-21T06:33:01;20.83;;;8.75;;
48703;SDS011;34502;51.296;16.918;2024-02-21T06:35:28;22.08;;;9.07;;
48703;SDS011;34502;51.296;16.918;2024-02-21T06:37:54;24.25;;;8.98;;
48703;SDS011;34502;51.296;16.918;2024-02-21T06:40:21;23.23;;;9.50;;
48703;SDS011;34502;51.296;16.918;2024-02-21T06:42:47;21.60;;;8.70;;
48703;SDS011;34502;51.296;16.918;2024-02-21T06:45:14;18.77;;;8.48;;
48703;SDS011;34502;51.296;16.918;2024-02-21T06:47:40;19.75;;;8.48;;
48703;SDS011;34502;51.296;16.918;2024-02-21T06:50:07;26.50;;;9.20;;
48703;SDS011;34502;51.296;16.918;2024-02-21T06:52:34;25.42;;;9.48;;
48703;SDS011;34502;51.296;16.918;2024-02-21T06:55:00;33.00;;;9.75;;
48703;SDS011;34502;51.296;16.918;2024-02-21T06:57:28;28.88;;;11.80;;
48703;SDS011;34502;51.296;16.918;2024-02-21T06:59:54;21.98;;;9.73;;
48703;SDS011;34502;51.296;16.918;2024-02-21T07:02:20;26.38;;;11.18;;
48703;SDS011;34502;51.296;16.918;2024-02-21T07:04:46;23.83;;;9.73;;
48703;SDS011;34502;51.296;16.918;2024-02-21T07:07:13;26.85;;;10.07;;
48703;SDS011;34502;51.296;16.918;2024-02-21T07:09:39;24.05;;;9.23;;
48703;SDS011;34502;51.296;16.918;2024-02-21T07:12:05;31.55;;;10.63;;
48703;SDS011;34502;51.296;16.918;2024-02-21T07:14:35;29.50;;;10.57;;
48703;SDS011;34502;51.296;16.918;2024-02-21T07:17:01;31.77;;;11.98;;
48703;SDS011;34502;51.296;16.918;2024-02-21T07:19:28;27.17;;;12.55;;
48703;SDS011;34502;51.296;16.918;2024-02-21T07:21:55;36.03;;;13.65;;
48703;SDS011;34502;51.296;16.918;2024-02-21T07:24:21;35.55;;;14.18;;
48703;SDS011;34502;51.296;16.918;2024-02-21T07:26:47;35.60;;;14.63;;
48703;SDS011;34502;51.296;16.918;2024-02-21T07:29:14;36.55;;;13.68;;
48703;SDS011;34502;51.296;16.918;2024-02-21T07:31:40;32.53;;;13.05;;
48703;SDS011;34502;51.296;16.918;2024-02-21T07:34:07;27.65;;;11.98;;
48703;SDS011;34502;51.296;16.918;2024-02-21T07:36:33;31.70;;;12.68;;
48703;SDS011;34502;51.296;16.918;2024-02-21T07:38:59;26.00;;;10.50;;
48703;SDS011;34502;51.296;16.918;2024-02-21T07:41:26;27.80;;;9.98;;
48703;SDS011;34502;51.296;16.918;2024-02-21T07:43:55;29.42;;;11.70;;
48703;SDS011;34502;51.296;16.918;2024-02-21T07:46:21;20.20;;;8.70;;
48703;SDS011;34502;51.296;16.918;2024-02-21T07:48:47;20.27;;;8.60;;
48703;SDS011;34502;51.296;16.918;2024-02-21T07:51:14;25.33;;;11.00;;
48703;SDS011;34502;51.296;16.918;2024-02-21T07:53:42;23.42;;;9.60;;
48703;SDS011;34502;51.296;16.918;2024-02-21T07:56:13;24.35;;;10.25;;
48703;SDS011;34502;51.296;16.918;2024-02-21T07:58:40;23.40;;;10.73;;
48703;SDS011;34502;51.296;16.918;2024-02-21T08:01:07;24.80;;;9.45;;
48703;SDS011;34502;51.296;16.918;2024-02-21T08:03:33;24.55;;;10.30;;
48703;SDS011;34502;51.296;16.918;2024-02-21T08:05:59;26.55;;;10.55;;
48703;SDS011;34502;51.296;16.918;2024-02-21T08:08:25;26.10;;;9.93;;
48703;SDS011;34502;51.296;16.918;2024-02-21T08:10:51;18.50;;;9.70;;
48703;SDS011;34502;51.296;16.918;2024-02-21T08:13:18;23.85;;;9.85;;
48703;SDS011;34502;51.296;16.918;2024-02-21T08:15:44;23.75;;;9.80;;
48703;SDS011;34502;51.296;16.918;2024-02-21T08:18:10;22.02;;;9.63;;
48703;SDS011;34502;51.296;16.918;2024-02-21T08:20:36;24.55;;;10.38;;
48703;SDS011;34502;51.296;16.918;2024-02-21T08:23:02;21.60;;;10.93;;
48703;SDS011;34502;51.296;16.918;2024-02-21T08:25:28;29.80;;;13.02;;
48703;SDS011;34502;51.296;16.918;2024-02-21T08:27:56;28.63;;;13.82;;
48703;SDS011;34502;51.296;16.918;2024-02-21T08:30:23;26.90;;;12.73;;
48703;SDS011;34502;51.296;16.918;2024-02-21T08:32:49;29.83;;;12.60;;
48703;SDS011;34502;51.296;16.918;2024-02-21T08:35:16;22.88;;;9.93;;
48703;SDS011;34502;51.296;16.918;2024-02-21T08:37:47;23.85;;;10.40;;
48703;SDS011;34502;51.296;16.918;2024-02-21T08:40:13;22.88;;;9.43;;
48703;SDS011;34502;51.296;16.918;2024-02-21T08:42:42;20.00;;;9.48;;
48703;SDS011;34502;51.296;16.918;2024-02-21T08:45:09;23.80;;;8.50;;
48703;SDS011;34502;51.296;16.918;2024-02-21T08:47:35;19.10;;;7.13;;
48703;SDS011;34502;51.296;16.918;2024-02-21T08:50:04;20.95;;;7.72;;
48703;SDS011;34502;51.296;16.918;2024-02-21T08:52:31;18.00;;;7.43;;
48703;SDS011;34502;51.296;16.918;2024-02-21T08:54:57;21.05;;;7.88;;
48703;SDS011;34502;51.296;16.918;2024-02-21T08:57:23;20.38;;;8.00;;
48703;SDS011;34502;51.296;16.918;2024-02-21T08:59:49;16.83;;;7.40;;
48703;SDS011;34502;51.296;16.918;2024-02-21T09:02:15;23.52;;;8.18;;
48703;SDS011;34502;51.296;16.918;2024-02-21T09:04:41;22.05;;;7.18;;
48703;SDS011;34502;51.296;16.918;2024-02-21T09:07:09;19.70;;;7.43;;
48703;SDS011;34502;51.296;16.918;2024-02-21T09:09:35;18.55;;;8.20;;
48703;SDS011;34502;51.296;16.918;2024-02-21T09:12:03;25.90;;;7.55;;
48703;SDS011;34502;51.296;16.918;2024-02-21T09:14:33;18.42;;;7.07;;
48703;SDS011;34502;51.296;16.918;2024-02-21T09:17:02;15.95;;;7.10;;
48703;SDS011;34502;51.296;16.918;2024-02-21T09:19:28;16.20;;;7.18;;
48703;SDS011;34502;51.296;16.918;2024-02-21T09:21:55;18.88;;;7.18;;
48703;SDS011;34502;51.296;16.918;2024-02-21T09:24:21;21.13;;;8.10;;
48703;SDS011;34502;51.296;16.918;2024-02-21T09:26:47;15.18;;;7.95;;
48703;SDS011;34502;51.296;16.918;2024-02-21T09:29:13;24.48;;;9.05;;
48703;SDS011;34502;51.296;16.918;2024-02-21T09:31:41;23.38;;;10.00;;
48703;SDS011;34502;51.296;16.918;2024-02-21T09:34:07;25.92;;;11.88;;
48703;SDS011;34502;51.296;16.918;2024-02-21T09:36:33;30.33;;;11.02;;
48703;SDS011;34502;51.296;16.918;2024-02-21T09:38:59;28.23;;;11.55;;
48703;SDS011;34502;51.296;16.918;2024-02-21T09:41:25;27.45;;;11.23;;
48703;SDS011;34502;51.296;16.918;2024-02-21T09:43:54;25.33;;;10.43;;
48703;SDS011;34502;51.296;16.918;2024-02-21T09:51:56;19.83;;;9.05;;
48703;SDS011;34502;51.296;16.918;2024-02-21T09:54:24;20.73;;;8.90;;
48703;SDS011;34502;51.296;16.918;2024-02-21T09:56:50;19.65;;;9.48;;
48703;SDS011;34502;51.296;16.918;2024-02-21T09:59:17;21.45;;;7.75;;
48703;SDS011;34502;51.296;16.918;2024-02-21T10:01:43;24.10;;;7.60;;
48703;SDS011;34502;51.296;16.918;2024-02-21T10:04:11;16.80;;;7.28;;
48703;SDS011;34502;51.296;16.918;2024-02-21T10:06:38;17.88;;;7.18;;
48703;SDS011;34502;51.296;16.918;2024-02-21T10:09:06;21.13;;;7.40;;
48703;SDS011;34502;51.296;16.918;2024-02-21T10:11:32;20.42;;;7.30;;
48703;SDS011;34502;51.296;16.918;2024-02-21T10:14:05;17.83;;;7.35;;
48703;SDS011;34502;51.296;16.918;2024-02-21T10:16:32;16.15;;;6.95;;
48703;SDS011;34502;51.296;16.918;2024-02-21T10:18:58;15.25;;;6.60;;
48703;SDS011;34502;51.296;16.918;2024-02-21T10:21:24;17.70;;;6.82;;
48703;SDS011;34502;51.296;16.918;2024-02-21T10:23:51;17.77;;;6.72;;
48703;SDS011;34502;51.296;16.918;2024-02-21T10:26:18;13.77;;;6.43;;
48703;SDS011;34502;51.296;16.918;2024-02-21T10:28:44;19.83;;;7.28;;
48703;SDS011;34502;51.296;16.918;2024-02-21T10:31:34;12.27;;;6.32;;
48703;SDS011;34502;51.296;16.918;2024-02-21T10:34:00;20.33;;;7.20;;
48703;SDS011;34502;51.296;16.918;2024-02-21T10:36:30;17.92;;;6.93;;
48703;SDS011;34502;51.296;16.918;2024-02-21T10:38:56;16.05;;;6.40;;
48703;SDS011;34502;51.296;16.918;2024-02-21T10:41:23;18.02;;;7.28;;
48703;SDS011;34502;51.296;16.918;2024-02-21T10:43:55;20.38;;;6.90;;
48703;SDS011;34502;51.296;16.918;2024-02-21T10:46:22;18.58;;;7.15;;
48703;SDS011;34502;51.296;16.918;2024-02-21T10:48:52;14.48;;;6.63;;
48703;SDS011;34502;51.296;16.918;2024-02-21T10:51:35;15.60;;;6.57;;
48703;SDS011;34502;51.296;16.918;2024-02-21T10:56:43;18.02;;;7.03;;
48703;SDS011;34502;51.296;16.918;2024-02-21T10:59:09;15.32;;;6.65;;
48703;SDS011;34502;51.296;16.918;2024-02-21T11:01:35;15.38;;;6.40;;
48703;SDS011;34502;51.296;16.918;2024-02-21T11:04:02;18.38;;;6.70;;
48703;SDS011;34502;51.296;16.918;2024-02-21T11:06:32;13.02;;;6.55;;
48703;SDS011;34502;51.296;16.918;2024-02-21T11:09:06;14.52;;;7.28;;
48703;SDS011;34502;51.296;16.918;2024-02-21T11:11:33;16.15;;;7.15;;
48703;SDS011;34502;51.296;16.918;2024-02-21T11:16:52;17.70;;;7.00;;
48703;SDS011;34502;51.296;16.918;2024-02-21T11:19:19;22.15;;;7.82;;
48703;SDS011;34502;51.296;16.918;2024-02-21T11:21:46;20.02;;;8.30;;
48703;SDS011;34502;51.296;16.918;2024-02-21T11:24:28;20.70;;;10.02;;
48703;SDS011;34502;51.296;16.918;2024-02-21T11:27:08;21.75;;;10.60;;
48703;SDS011;34502;51.296;16.918;2024-02-21T11:29:46;28.25;;;9.63;;
48703;SDS011;34502;51.296;16.918;2024-02-21T11:32:20;18.27;;;9.18;;
48703;SDS011;34502;51.296;16.918;2024-02-21T11:35:02;17.17;;;8.80;;
48703;SDS011;34502;51.296;16.918;2024-02-21T11:37:30;26.13;;;10.32;;
48703;SDS011;34502;51.296;16.918;2024-02-21T11:40:02;19.92;;;9.75;;
48703;SDS011;34502;51.296;16.918;2024-02-21T11:42:28;14.70;;;7.57;;
48703;SDS011;34502;51.296;16.918;2024-02-21T11:44:59;23.98;;;8.88;;
48703;SDS011;34502;51.296;16.918;2024-02-21T11:47:27;15.80;;;8.20;;
48703;SDS011;34502;51.296;16.918;2024-02-21T11:49:54;20.02;;;9.43;;
48703;SDS011;34502;51.296;16.918;2024-02-21T11:52:23;18.67;;;7.97;;
48703;SDS011;34502;51.296;16.918;2024-02-21T11:54:51;25.33;;;10.18;;
48703;SDS011;34502;51.296;16.918;2024-02-21T11:57:17;19.75;;;8.35;;
48703;SDS011;34502;51.296;16.918;2024-02-21T11:59:44;19.02;;;8.82;;
48703;SDS011;34502;51.296;16.918;2024-02-21T12:02:11;17.42;;;7.90;;
48703;SDS011;34502;51.296;16.918;2024-02-21T12:04:38;16.60;;;8.13;;
48703;SDS011;34502;51.296;16.918;2024-02-21T12:07:04;19.00;;;7.70;;
48703;SDS011;34502;51.296;16.918;2024-02-21T12:09:30;19.08;;;8.27;;
48703;SDS011;34502;51.296;16.918;2024-02-21T12:11:57;17.73;;;7.38;;
48703;SDS011;34502;51.296;16.918;2024-02-21T12:14:30;22.20;;;7.70;;
48703;SDS011;34502;51.296;16.918;2024-02-21T12:16:58;16.80;;;7.40;;
48703;SDS011;34502;51.296;16.918;2024-02-21T12:19:26;16.75;;;7.78;;
48703;SDS011;34502;51.296;16.918;2024-02-21T12:21:56;22.40;;;7.63;;
48703;SDS011;34502;51.296;16.918;2024-02-21T12:24:24;17.60;;;7.53;;
48703;SDS011;34502;51.296;16.918;2024-02-21T12:26:51;15.45;;;6.88;;
48703;SDS011;34502;51.296;16.918;2024-02-21T12:29:18;16.45;;;6.90;;
48703;SDS011;34502;51.296;16.918;2024-02-21T12:31:44;21.50;;;7.28;;
48703;SDS011;34502;51.296;16.918;2024-02-21T12:34:11;12.02;;;6.18;;
48703;SDS011;34502;51.296;16.918;2024-02-21T12:36:44;15.38;;;7.00;;
48703;SDS011;34502;51.296;16.918;2024-02-21T12:39:13;19.20;;;6.82;;
48703;SDS011;34502;51.296;16.918;2024-02-21T12:41:40;14.75;;;5.57;;
48703;SDS011;34502;51.296;16.918;2024-02-21T12:44:08;15.75;;;7.05;;
48703;SDS011;34502;51.296;16.918;2024-02-21T12:46:34;16.73;;;7.25;;
48703;SDS011;34502;51.296;16.918;2024-02-21T12:49:00;19.52;;;7.00;;
48703;SDS011;34502;51.296;16.918;2024-02-21T12:51:27;11.77;;;5.88;;
48703;SDS011;34502;51.296;16.918;2024-02-21T12:53:54;16.63;;;6.30;;
48703;SDS011;34502;51.296;16.918;2024-02-21T12:56:20;14.65;;;6.95;;
48703;SDS011;34502;51.296;16.918;2024-02-21T12:58:47;16.10;;;6.75;;
48703;SDS011;34502;51.296;16.918;2024-02-21T13:01:13;13.90;;;6.57;;
48703;SDS011;34502;51.296;16.918;2024-02-21T13:03:39;12.38;;;5.32;;
48703;SDS011;34502;51.296;16.918;2024-02-21T13:06:05;14.30;;;6.40;;
48703;SDS011;34502;51.296;16.918;2024-02-21T13:08:35;11.48;;;5.18;;
48703;SDS011;34502;51.296;16.918;2024-02-21T13:11:02;12.02;;;5.25;;
48703;SDS011;34502;51.296;16.918;2024-02-21T13:13:29;16.20;;;5.68;;
48703;SDS011;34502;51.296;16.918;2024-02-21T13:15:55;13.52;;;5.68;;
48703;SDS011;34502;51.296;16.918;2024-02-21T13:18:22;10.25;;;5.05;;
48703;SDS011;34502;51.296;16.918;2024-02-21T13:20:48;11.88;;;5.30;;
48703;SDS011;34502;51.296;16.918;2024-02-21T13:23:14;13.73;;;6.00;;
48703;SDS011;34502;51.296;16.918;2024-02-21T13:25:40;11.43;;;5.28;;
48703;SDS011;34502;51.296;16.918;2024-02-21T13:28:06;12.88;;;5.90;;
48703;SDS011;34502;51.296;16.918;2024-02-21T13:30:34;12.80;;;5.22;;
48703;SDS011;34502;51.296;16.918;2024-02-21T13:33:00;17.90;;;5.47;;
48703;SDS011;34502;51.296;16.918;2024-02-21T13:35:28;9.18;;;4.63;;
48703;SDS011;34502;51.296;16.918;2024-02-21T13:37:54;11.63;;;4.55;;
48703;SDS011;34502;51.296;16.918;2024-02-21T13:40:20;14.20;;;4.63;;
48703;SDS011;34502;51.296;16.918;2024-02-21T13:42:46;11.57;;;4.45;;
48703;SDS011;34502;51.296;16.918;2024-02-21T13:45:14;9.80;;;4.40;;
48703;SDS011;34502;51.296;16.918;2024-02-21T13:47:40;7.80;;;3.60;;
48703;SDS011;34502;51.296;16.918;2024-02-21T13:50:07;11.18;;;3.90;;
48703;SDS011;34502;51.296;16.918;2024-02-21T13:52:36;10.82;;;4.15;;
48703;SDS011;34502;51.296;16.918;2024-02-21T13:55:03;8.88;;;3.78;;
48703;SDS011;34502;51.296;16.918;2024-02-21T13:57:29;15.07;;;4.53;;
48703;SDS011;34502;51.296;16.918;2024-02-21T13:59:55;9.27;;;4.07;;
48703;SDS011;34502;51.296;16.918;2024-02-21T14:02:21;13.80;;;4.25;;
48703;SDS011;34502;51.296;16.918;2024-02-21T14:04:47;7.32;;;4.30;;
48703;SDS011;34502;51.296;16.918;2024-02-21T14:07:14;15.40;;;5.32;;
48703;SDS011;34502;51.296;16.918;2024-02-21T14:09:40;12.23;;;5.30;;
48703;SDS011;34502;51.296;16.918;2024-02-21T14:12:06;13.82;;;5.10;;
48703;SDS011;34502;51.296;16.918;2024-02-21T14:14:33;7.18;;;4.07;;
48703;SDS011;34502;51.296;16.918;2024-02-21T14:17:00;9.43;;;4.95;;
48703;SDS011;34502;51.296;16.918;2024-02-21T14:19:27;14.65;;;5.22;;
48703;SDS011;34502;51.296;16.918;2024-02-21T14:21:53;11.68;;;4.97;;
48703;SDS011;34502;51.296;16.918;2024-02-21T14:24:19;11.68;;;5.10;;
48703;SDS011;34502;51.296;16.918;2024-02-21T14:26:45;9.95;;;4.72;;
48703;SDS011;34502;51.296;16.918;2024-02-21T14:29:13;12.43;;;5.40;;
48703;SDS011;34502;51.296;16.918;2024-02-21T14:31:39;12.82;;;5.38;;
48703;SDS011;34502;51.296;16.918;2024-02-21T14:34:05;16.35;;;5.28;;